Flight Track Log - Related Links

Times and Time Zones

All times are in EDT time to prevent confusion due to time zone crossing. See the BAW18A flight status page for this flight to view local times or setup timezone preferences in your user account.

Time Position Orientation Groundspeed Altitude Reporting Facility
EDT Latitude Longitude Course Direction KTS MPH feet Rate Location/Type
Sat 11:58:02 PM 40.6150 -73.7900 211° Southwest 165 190 1,400  Level FlightAware ADS-B
Sat 11:58:12 PM 40.6080 -73.7950 208° Southwest 173 199 1,600 750 Climbing FlightAware ADS-B
Sat 11:58:42 PM 40.5830 -73.8100 204° Southwest 214 246 1,900 600 Climbing FlightAware ADS-B
Sat 11:58:52 PM 40.5710 -73.8130 191° South 238 274 2,000 800 Climbing FlightAware ADS-B
Sat 11:59:12 PM 40.5500 -73.8030 160° South 271 312 2,300 1,455 Climbing FlightAware ADS-B
Sat 11:59:25 PM 40.5378 -73.7839 130° Southeast 281 323 2,800 2,182 Climbing FlightAware ADS-B
Sun 12:00:07 AM 40.5450 -73.7200 82° East 288 331 4,300 2,211 Climbing FlightAware ADS-B
Sun 12:00:22 AM 40.5620 -73.7030 37° Northeast 289 333 4,900 2,133 Climbing FlightAware ADS-B
Sun 12:00:52 AM 40.5960 -73.6750 32° Northeast 301 346 5,900 2,073 Climbing FlightAware ADS-B
Sun 12:01:17 AM 40.6240 -73.6470 37° Northeast 305 351 6,800 2,073 Climbing FlightAware ADS-B
Sun 12:01:47 AM 40.6610 -73.6190 30° Northeast 309 356 7,800 2,073 Climbing FlightAware ADS-B
Sun 12:02:12 AM 40.6940 -73.5980 26° Northeast 314 361 8,700 2,182 Climbing FlightAware ADS-B
Sun 12:02:42 AM 40.7310 -73.5730 27° Northeast 317 365 9,800 1,714 Climbing FlightAware ADS-B
Sun 12:03:22 AM 40.7850 -73.5370 27° Northeast 342 394 10,700 1,129 Climbing FlightAware ADS-B
Sun 12:04:07 AM 40.8530 -73.4920 27° Northeast 379 436 11,400 1,553 Climbing FlightAware ADS-B
Sun 12:04:47 AM 40.9180 -73.4490 27° Northeast 391 450 12,900 2,047 Climbing FlightAware ADS-B
Sun 12:05:32 AM 40.9910 -73.4000 27° Northeast 406 467 14,300 1,906 Climbing FlightAware ADS-B
Sun 12:06:12 AM 41.0530 -73.3400 36° Northeast 419 482 15,600 2,025 Climbing FlightAware ADS-B
Sun 12:06:52 AM 41.1090 -73.2710 43° Northeast 422 486 17,000 1,976 Climbing FlightAware ADS-B
Sun 12:07:37 AM 41.1790 -73.1910 41° Northeast 432 497 18,400 1,140 Climbing FlightAware ADS-B
Sun 12:08:32 AM 41.2550 -73.1080 39° Northeast 435 501 18,900 316 Climbing FlightAware ADS-B
Sun 12:09:12 AM 41.3080 -73.0510 39° Northeast 435 501 18,900 1,976 Level FlightAware ADS-B
Sun 12:09:57 AM 41.3950 -72.9570 39° Northeast 451 519 21,700 1,976 Climbing FlightAware ADS-B
Sun 12:10:37 AM 41.4520 -72.9000 37° Northeast 451 519 21,700  Level FlightAware ADS-B
Sun 12:11:17 AM 41.5090 -72.8430 37° Northeast 451 519 21,700  Level FlightAware ADS-B
Sun 12:11:57 AM 41.5650 -72.7860 37° Northeast 451 519 21,700  Level FlightAware ADS-B
Sun 12:12:37 AM 41.6220 -72.7290 37° Northeast 451 519 21,700  Level FlightAware ADS-B
Sun 12:13:17 AM 41.6790 -72.6710 37° Northeast 451 519 21,700 2,731 Level FlightAware ADS-B
Sun 12:14:22 AM 41.8200 -72.5290 37° Northeast 27,800 3,771 Climbing FlightAware ADS-B
Sun 12:15:02 AM 41.9440 -72.4020 37° Northeast 513 590 28,300 1,271 Climbing FlightAware ADS-B
Sun 12:15:17 AM 41.9430 -72.4040 236° Southwest 29,100 1,733 Climbing FlightAware ADS-B
Sun 12:15:47 AM 42.0320 -72.3120 38° Northeast 525 604 29,600 1,024 Climbing FlightAware ADS-B
Sun 12:16:39 AM 42.1208 -72.2217 38° Northeast 515 593 30,500 1,446 Climbing Boston Center
Sun 12:17:39 AM 42.2372 -72.1008 38° Northeast 520 598 32,300 1,200 Climbing Boston Center
Sun 12:18:39 AM 42.3558 -71.9794 37° Northeast 520 598 32,900 600 Climbing Boston Center
Sun 12:19:39 AM 42.4739 -71.8547 38° Northeast 526 605 33,500 800 Climbing Boston Center
Sun 12:20:39 AM 42.5942 -71.7267 38° Northeast 531 611 34,500 1,000 Climbing Boston Center
Sun 12:21:39 AM 42.7161 -71.6008 37° Northeast 542 624 35,500 1,050 Climbing Boston Center
Sun 12:22:39 AM 42.8525 -71.4631 37° Northeast 556 640 36,600 750 Climbing Boston Center
Sun 12:23:39 AM 42.9722 -71.3333 38° Northeast 544 626 37,000 63 Climbing Boston Center
Sun 12:28:57 AM 43.5970 -70.6540 38° Northeast 551 634 37,000  Level FlightAware ADS-B
Sun 12:29:47 AM 43.7050 -70.5350 39° Northeast 552 635 37,000  Level FlightAware ADS-B
Sun 12:30:27 AM 43.7850 -70.4470 38° Northeast 553 636 37,000  Level FlightAware ADS-B
Sun 12:31:02 AM 43.8520 -70.3730 39° Northeast 554 638 37,000  Level FlightAware ADS-B
Sun 12:31:52 AM 43.9580 -70.2550 39° Northeast 554 638 37,000  Level FlightAware ADS-B
Sun 12:32:32 AM 44.0340 -70.1700 39° Northeast 555 639 37,000  Level FlightAware ADS-B
Sun 12:33:17 AM 44.1250 -70.0680 39° Northeast 555 639 37,000  Level FlightAware ADS-B
Sun 12:33:57 AM 44.2050 -69.9780 39° Northeast 557 641 37,000  Level FlightAware ADS-B
Sun 12:34:42 AM 44.2930 -69.8790 39° Northeast 556 640 37,000  Level FlightAware ADS-B
Sun 12:35:32 AM 44.3860 -69.7730 39° Northeast 558 642 37,000  Level FlightAware ADS-B
Sun 12:36:17 AM 44.4800 -69.6670 39° Northeast 563 648 37,000  Level FlightAware ADS-B
Sun 12:37:02 AM 44.5760 -69.5570 39° Northeast 564 649 37,000  Level FlightAware ADS-B
Sun 12:37:42 AM 44.6570 -69.4640 39° Northeast 567 652 37,000  Level FlightAware ADS-B
Sun 12:38:22 AM 44.7380 -69.3710 39° Northeast 564 649 37,000  Level FlightAware ADS-B
Sun 12:39:07 AM 44.8300 -69.2650 39° Northeast 559 643 37,000  Level FlightAware ADS-B
Sun 12:39:47 AM 44.9110 -69.1700 40° Northeast 558 642 37,000  Level FlightAware ADS-B
Sun 12:40:32 AM 44.9980 -69.0690 39° Northeast 558 642 37,000  Level FlightAware ADS-B
Sun 12:41:12 AM 45.0760 -68.9770 40° Northeast 556 640 37,000  Level FlightAware ADS-B
Sun 12:41:52 AM 45.1570 -68.8830 39° Northeast 556 640 37,000  Level FlightAware ADS-B
Sun 12:42:37 AM 45.2430 -68.7810 40° Northeast 555 639 37,000  Level FlightAware ADS-B
Sun 12:43:17 AM 45.3250 -68.6840 40° Northeast 555 639 37,000  Level FlightAware ADS-B
Sun 12:44:02 AM 45.4130 -68.5800 40° Northeast 553 636 37,000  Level FlightAware ADS-B
Sun 12:44:32 AM 45.4680 -68.5140 40° Northeast 552 635 37,000  Level FlightAware ADS-B
Sun 12:45:22 AM 45.5660 -68.3960 40° Northeast 555 639 37,000  Level FlightAware ADS-B
Sun 12:46:07 AM 45.6450 -68.3020 40° Northeast 556 640 37,000  Level FlightAware ADS-B
Sun 12:46:37 AM 45.7120 -68.2200 41° Northeast 555 639 37,000  Level FlightAware ADS-B
Sun 12:47:27 AM 45.8030 -68.1110 40° Northeast 553 636 37,000  Level FlightAware ADS-B
Sun 12:48:37 AM 45.9390 -67.9460 40° Northeast 548 631 37,000  Level FlightAware ADS-B
Sun 12:49:47 AM 46.0680 -67.7860 41° Northeast 537 618 37,000  Level FlightAware ADS-B
Sun 12:50:32 AM 46.1670 -67.6660 40° Northeast 546 628 37,000  Level FlightAware ADS-B
Sun 12:51:07 AM 46.2280 -67.5900 41° Northeast 545 627 37,000  Level FlightAware ADS-B
Sun 12:51:52 AM 46.3070 -67.4940 40° Northeast 545 627 37,000  Level FlightAware ADS-B
Sun 12:52:32 AM 46.3720 -67.4140 40° Northeast 545 627 37,000  Level FlightAware ADS-B
Sun 12:53:22 AM 46.4540 -67.3140 40° Northeast 545 627 37,000  Level FlightAware ADS-B
Sun 12:54:02 AM 46.5200 -67.2340 40° Northeast 545 627 37,000  Level FlightAware ADS-B
Sun 12:54:42 AM 46.5860 -67.1540 40° Northeast 545 627 37,000  Level FlightAware ADS-B
Sun 12:55:22 AM 46.6510 -67.0740 40° Northeast 545 627 37,000  Level FlightAware ADS-B
Sun 12:56:02 AM 46.7170 -66.9930 40° Northeast 545 627 37,000  Level FlightAware ADS-B
Sun 12:56:42 AM 46.7830 -66.9130 40° Northeast 545 627 37,000  Level FlightAware ADS-B
Sun 12:57:22 AM 46.8480 -66.8320 40° Northeast 545 627 37,000  Level FlightAware ADS-B
Sun 12:58:12 AM 46.9300 -66.7320 40° Northeast 545 627 37,000  Level FlightAware ADS-B
Sun 12:58:52 AM 46.9960 -66.6510 40° Northeast 545 627 37,000  Level FlightAware ADS-B
Sun 12:59:32 AM 47.0620 -66.5700 40° Northeast 545 627 37,000  Level FlightAware ADS-B
Sun 01:00:12 AM 47.1270 -66.4890 40° Northeast 545 627 37,000  Level FlightAware ADS-B
Sun 01:01:02 AM 47.2100 -66.3880 40° Northeast 545 627 37,000  Level FlightAware ADS-B
Sun 01:01:45 AM 47.4000 -66.1000 40° Northeast 520 598 37,000  Level Gander Center
Sun 01:02:01 AM 47.4333 -66.0500 45° Northeast 530 610 37,000  Level Gander Center
Sun 01:02:54 AM 47.5167 -65.9167 47° Northeast 520 598 37,000  Level Moncton Center
Sun 01:03:54 AM 47.6167 -65.7667 45° Northeast 520 598 37,000  Level Moncton Center
Sun 01:04:54 AM 47.7500 -65.6167 37° Northeast 520 598 37,000  Level Moncton Center
Sun 01:07:00 AM 47.9504 -65.3458 42° Northeast  Level FlightAware Approximate
Sun 01:10:01 AM 48.2833 -64.8667 43° Northeast 530 610 37,000  Level Gander Center
Sun 01:10:54 AM 48.3833 -64.7167 45° Northeast 530 610 37,000  Level Moncton Center
Sun 01:11:54 AM 48.5000 -64.5667 40° Northeast 530 610 37,000  Level Moncton Center
Sun 01:12:54 AM 48.6000 -64.4167 45° Northeast 530 610 37,000  Level Moncton Center
Sun 01:13:54 AM 48.7167 -64.2667 40° Northeast 540 621 37,000  Level Moncton Center
Sun 01:14:00 AM 48.6524 -64.3731 43° Northeast  Level FlightAware Approximate
Sun 01:14:54 AM 48.8167 -64.1167 45° Northeast 540 621 37,000  Level Moncton Center
Sun 01:15:00 AM 48.7520 -64.2318 43° Northeast  Level FlightAware Approximate
Sun 01:15:54 AM 48.9333 -63.9333 46° Northeast 540 621 37,000  Level Moncton Center
Sun 01:16:54 AM 49.0500 -63.7833 40° Northeast 550 633 37,000  Level Moncton Center
Sun 01:17:54 AM 49.1500 -63.6333 44° Northeast 550 633 37,000  Level Moncton Center
Sun 01:18:54 AM 49.2667 -63.4667 43° Northeast 550 633 37,000  Level Moncton Center
Sun 01:19:54 AM 49.3667 -63.3167 44° Northeast 550 633 37,000  Level Moncton Center
Sun 01:20:54 AM 49.5000 -63.1333 42° Northeast 550 633 37,000  Level Moncton Center
Sun 01:21:54 AM 49.6000 -62.9833 44° Northeast 530 610 37,000  Level Moncton Center
Sun 01:22:54 AM 49.7000 -62.8167 47° Northeast 530 610 37,000  Level Moncton Center
Sun 01:23:54 AM 49.8000 -62.6667 44° Northeast 530 610 37,000  Level Moncton Center
Sun 01:24:54 AM 49.9333 -62.5000 39° Northeast 540 621 37,000  Level Moncton Center
Sun 01:25:54 AM 50.0167 -62.3333 52° Northeast 510 587 37,000  Level Moncton Center
Sun 01:26:54 AM 50.1167 -62.1833 44° Northeast 530 610 37,000  Level Moncton Center
Sun 01:27:54 AM 50.2333 -62.0167 42° Northeast 530 610 37,000  Level Moncton Center
Sun 01:28:54 AM 50.3167 -61.8833 46° Northeast 510 587 37,000  Level Moncton Center
Sun 01:29:54 AM 50.4500 -61.6833 44° Northeast 560 644 37,000  Level Moncton Center
Sun 01:30:54 AM 50.5500 -61.5333 44° Northeast 530 610 37,000  Level Moncton Center
Sun 01:31:54 AM 50.6500 -61.3667 47° Northeast 540 621 37,000  Level Moncton Center
Sun 01:32:54 AM 50.7500 -61.2000 46° Northeast 540 621 37,000  Level Moncton Center
Sun 01:33:54 AM 50.8667 -61.0333 42° Northeast 550 633 37,000  Level Moncton Center
Sun 01:34:54 AM 50.9833 -60.8333 47° Northeast 550 633 37,000  Level Moncton Center
Sun 01:35:54 AM 51.0667 -60.6667 51° Northeast 550 633 37,000  Level Moncton Center
Sun 01:36:54 AM 51.1667 -60.5000 46° Northeast 540 621 37,000 250 Level Moncton Center
Sun 01:37:54 AM 51.2833 -60.3000 47° Northeast 550 633 37,500 500 Climbing Moncton Center
Sun 01:38:54 AM 51.3667 -60.1333 51° Northeast 550 633 38,000 250 Climbing Moncton Center
Sun 01:39:54 AM 51.4833 -59.9333 47° Northeast 550 633 38,000  Level Moncton Center
Sun 01:40:54 AM 51.5833 -59.7667 46° Northeast 550 633 38,000  Level Moncton Center
Sun 01:41:45 AM 51.6667 -59.6167 48° Northeast 540 621 38,000  Level Gander Center
Sun 01:42:45 AM 51.7667 -59.4167 51° Northeast 540 621 38,000  Level Gander Center
Sun 01:43:01 AM 51.8000 -59.3667 43° Northeast 540 621 38,000  Level Gander Center
Sun 01:44:01 AM 51.8667 -59.1667 62° Northeast 530 610 38,000  Level Gander Center
Sun 01:44:54 AM 51.9667 -59.0167 43° Northeast 530 610 38,000  Level Moncton Center
Sun 01:45:54 AM 52.0333 -58.8500 57° Northeast 530 610 38,000  Level Moncton Center
Sun 01:46:54 AM 52.1500 -58.6333 49° Northeast 530 610 38,000  Level Moncton Center
Sun 01:47:45 AM 52.2333 -58.4667 51° Northeast 530 610 38,000  Level Gander Center
Sun 01:48:01 AM 52.2667 -58.4333 31° Northeast 530 610 38,000  Level Gander Center
Sun 01:49:01 AM 52.3333 -58.2500 59° Northeast 530 610 38,000  Level Gander Center
Sun 01:50:01 AM 52.4333 -58.0500 51° Northeast 530 610 38,000  Level Gander Center
Sun 01:51:01 AM 52.5333 -57.8667 48° Northeast 530 610 38,000  Level Gander Center
Sun 01:51:54 AM 52.6000 -57.7000 57° Northeast 530 610 38,000  Level Moncton Center
Sun 01:52:54 AM 52.7167 -57.4833 48° Northeast 530 610 38,000  Level Moncton Center
Sun 01:53:54 AM 52.8000 -57.3167 50° Northeast 540 621 38,000  Level Moncton Center
Sun 01:54:54 AM 52.8833 -57.1000 57° Northeast 540 621 38,000  Level Moncton Center
Sun 01:55:54 AM 52.9833 -56.9167 48° Northeast 540 621 38,000 250 Level Moncton Center
Sun 01:56:54 AM 53.0667 -56.7167 55° Northeast 540 621 38,500  Climbing Moncton Center
Sun 01:57:54 AM 53.1500 -56.5000 57° Northeast 530 610 38,000 -236 Descending Moncton Center
Sun 01:59:01 AM 53.2667 -56.2833 48° Northeast 540 621 38,000 -50 Level Gander Center
Sun 01:59:54 AM 53.3500 -56.1000 53° Northeast 540 621 37,900  Descending Moncton Center
Sun 02:00:54 AM 53.4167 -55.9167 59° Northeast 530 610 38,000 50 Climbing Moncton Center
Sun 02:01:54 AM 53.5167 -55.7000 52° Northeast 540 621 38,000  Level Moncton Center
Sun 02:02:54 AM 53.6000 -55.5167 53° Northeast 540 621 38,000  Level Moncton Center
Sun 02:03:54 AM 53.7000 -55.3167 50° Northeast 530 610 38,000  Level Moncton Center
Sun 02:04:54 AM 53.7833 -55.1000 57° Northeast 540 621 38,000  Level Moncton Center
Sun 02:05:54 AM 53.8667 -54.9167 52° Northeast 540 621 38,000  Level Moncton Center
Sun 02:06:54 AM 53.9167 -54.6500 72° East 540 621 38,000  Level Moncton Center
Sun 02:07:54 AM 53.9500 -54.4167 76° East 540 621 38,000  Level Moncton Center
Sun 02:08:54 AM 54.0167 -54.2000 62° Northeast 540 621 38,000  Level Moncton Center
Sun 02:09:45 AM 54.0667 -54.0167 65° Northeast 540 621 38,000  Level Gander Center
Sun 02:10:01 AM 54.1000 -53.9167 60° Northeast 540 621 38,000  Level Gander Center
Sun 02:11:01 AM 54.1500 -53.6833 70° East 540 621 38,000  Level Gander Center
Sun 02:12:01 AM 54.2167 -53.4333 65° Northeast 540 621 38,000  Level Gander Center
Sun 02:13:01 AM 54.2667 -53.2000 70° East 540 621 38,000  Level Gander Center
Sun 02:14:01 AM 54.3167 -52.9667 70° East 540 621 38,000  Level Gander Center
Sun 02:14:45 AM 54.3667 -52.8333 57° Northeast 540 621 38,000  Level Gander Center
Sun 02:15:45 AM 54.4000 -52.5667 78° East 540 621 38,000  Level Gander Center
Sun 02:16:45 AM 54.4500 -52.3333 70° East 540 621 38,000  Level Gander Center
Sun 02:17:45 AM 54.5333 -52.1000 58° Northeast 540 621 38,000  Level Gander Center
Sun 02:18:01 AM 54.5333 -51.9833 90° East 540 621 38,000  Level Gander Center
Sun 02:19:01 AM 54.6000 -51.7667 62° Northeast 540 621 38,000  Level Gander Center
Sun 02:19:45 AM 54.6167 -51.6167 79° East 540 621 38,000  Level Gander Center
Sun 02:20:01 AM 54.6500 -51.5333 55° Northeast 540 621 38,000  Level Gander Center
Sun 02:21:01 AM 54.7000 -51.2833 71° East 540 621 38,000  Level Gander Center
Sun 02:22:01 AM 54.7667 -51.0000 68° East 540 621 38,000  Level Gander Center
Sun 02:22:45 AM 54.7833 -50.8833 76° East 550 633 38,000  Level Gander Center
Sun 02:23:01 AM 54.8000 -50.7667 76° East 550 633 38,000  Level Gander Center
Sun 02:24:01 AM 54.8500 -50.5500 68° East 550 633 38,000  Level Gander Center
Sun 02:25:01 AM 54.9167 -50.3000 65° Northeast 540 621 38,000  Level Gander Center
Sun 02:26:01 AM 54.9667 -50.0167 73° East 540 621 38,000  Level Gander Center
Sun 02:28:00 AM 55.0607 -49.5701 76° East  Level FlightAware Approximate
Sun 02:35:00 AM 55.2778 -47.9203 76° East  Level FlightAware Approximate
Sun 02:36:00 AM 55.3070 -47.6832 78° East  Level FlightAware Approximate
Sun 02:37:00 AM 55.3358 -47.4458 78° East  Level FlightAware Approximate
Sun 02:38:00 AM 55.3641 -47.2080 78° East  Level FlightAware Approximate
Sun 02:39:00 AM 55.3919 -46.9698 78° East  Level FlightAware Approximate
Sun 02:40:00 AM 55.4192 -46.7313 78° East  Level FlightAware Approximate
Sun 02:41:00 AM 55.4461 -46.4925 79° East  Level FlightAware Approximate
Sun 02:42:00 AM 55.4725 -46.2534 79° East  Level FlightAware Approximate
Sun 02:43:00 AM 55.4985 -46.0139 79° East  Level FlightAware Approximate
Sun 02:44:00 AM 55.5240 -45.7742 79° East  Level FlightAware Approximate
Sun 02:45:00 AM 55.5490 -45.5341 79° East  Level FlightAware Approximate
Sun 02:46:00 AM 55.5736 -45.2937 80° East  Level FlightAware Approximate
Sun 02:47:00 AM 55.5976 -45.0531 80° East  Level FlightAware Approximate
Sun 02:48:00 AM 55.6213 -44.8121 80° East  Level FlightAware Approximate
Sun 02:49:00 AM 55.6444 -44.5709 80° East  Level FlightAware Approximate
Sun 02:50:00 AM 55.6670 -44.3293 80° East  Level FlightAware Approximate
Sun 02:51:00 AM 55.6898 -44.0877 80° East  Level FlightAware Approximate
Sun 02:52:00 AM 55.7121 -43.8458 81° East  Level FlightAware Approximate
Sun 02:53:00 AM 55.7339 -43.6036 81° East  Level FlightAware Approximate
Sun 02:54:00 AM 55.7552 -43.3611 81° East  Level FlightAware Approximate
Sun 02:55:00 AM 55.7761 -43.1184 81° East  Level FlightAware Approximate
Sun 02:56:00 AM 55.7965 -42.8754 81° East  Level FlightAware Approximate
Sun 02:57:00 AM 55.8164 -42.6322 82° East  Level FlightAware Approximate
Sun 02:58:00 AM 55.8358 -42.3887 82° East  Level FlightAware Approximate
Sun 02:59:00 AM 55.8548 -42.1450 82° East  Level FlightAware Approximate
Sun 03:00:00 AM 55.8732 -41.9011 82° East  Level FlightAware Approximate
Sun 03:01:00 AM 55.8912 -41.6569 82° East  Level FlightAware Approximate
Sun 03:02:00 AM 55.9087 -41.4125 83° East  Level FlightAware Approximate
Sun 03:03:00 AM 55.9257 -41.1679 83° East  Level FlightAware Approximate
Sun 03:04:00 AM 55.9422 -40.9230 83° East  Level FlightAware Approximate
Sun 03:05:00 AM 55.9582 -40.6780 83° East  Level FlightAware Approximate
Sun 03:06:00 AM 55.9738 -40.4327 83° East  Level FlightAware Approximate
Sun 03:07:00 AM 55.9888 -40.1873 84° East  Level FlightAware Approximate
Sun 03:08:00 AM 56.0022 -39.9415 86° East  Level FlightAware Approximate
Sun 03:09:00 AM 56.0112 -39.6949 86° East  Level FlightAware Approximate
Sun 03:10:00 AM 56.0196 -39.4483 86° East  Level FlightAware Approximate
Sun 03:11:00 AM 56.0276 -39.2015 87° East  Level FlightAware Approximate
Sun 03:12:00 AM 56.0350 -38.9547 87° East  Level FlightAware Approximate
Sun 03:13:00 AM 56.0420 -38.7077 87° East  Level FlightAware Approximate
Sun 03:14:00 AM 56.0485 -38.4607 87° East  Level FlightAware Approximate
Sun 03:15:00 AM 56.0545 -38.2135 87° East  Level FlightAware Approximate
Sun 03:16:00 AM 56.0600 -37.9663 88° East  Level FlightAware Approximate
Sun 03:17:00 AM 56.0650 -37.7191 88° East  Level FlightAware Approximate
Sun 03:18:00 AM 56.0695 -37.4717 88° East  Level FlightAware Approximate
Sun 03:19:00 AM 56.0735 -37.2244 88° East  Level FlightAware Approximate
Sun 03:20:00 AM 56.0770 -36.9769 88° East  Level FlightAware Approximate
Sun 03:21:00 AM 56.0801 -36.7295 89° East  Level FlightAware Approximate
Sun 03:22:00 AM 56.0826 -36.4820 89° East  Level FlightAware Approximate
Sun 03:23:00 AM 56.0846 -36.2344 89° East  Level FlightAware Approximate
Sun 03:24:00 AM 56.0862 -35.9869 89° East  Level FlightAware Approximate
Sun 03:25:00 AM 56.0872 -35.7393 89° East  Level FlightAware Approximate
Sun 03:26:00 AM 56.0878 -35.4917 90° East  Level FlightAware Approximate
Sun 03:27:00 AM 56.0878 -35.2441 90° East  Level FlightAware Approximate
Sun 03:28:00 AM 56.0874 -34.9966 90° East  Level FlightAware Approximate
Sun 03:29:00 AM 56.0864 -34.7490 90° East  Level FlightAware Approximate
Sun 03:30:00 AM 56.0850 -34.5014 90° East  Level FlightAware Approximate
Sun 03:31:00 AM 56.0833 -34.2539 90° East  Level FlightAware Approximate
Sun 03:32:00 AM 56.0824 -34.0063 90° East  Level FlightAware Approximate
Sun 03:33:00 AM 56.0811 -33.7588 90° East  Level FlightAware Approximate
Sun 03:34:00 AM 56.0793 -33.5112 91° East  Level FlightAware Approximate
Sun 03:35:00 AM 56.0770 -33.2638 91° East  Level FlightAware Approximate
Sun 03:36:00 AM 56.0742 -33.0163 91° East  Level FlightAware Approximate
Sun 03:37:00 AM 56.0709 -32.7689 91° East  Level FlightAware Approximate
Sun 03:38:00 AM 56.0671 -32.5215 91° East  Level FlightAware Approximate
Sun 03:39:00 AM 56.0628 -32.2742 92° East  Level FlightAware Approximate
Sun 03:40:00 AM 56.0580 -32.0269 92° East  Level FlightAware Approximate
Sun 03:41:00 AM 56.0527 -31.7797 92° East  Level FlightAware Approximate
Sun 03:42:00 AM 56.0469 -31.5326 92° East  Level FlightAware Approximate
Sun 03:43:00 AM 56.0406 -31.2855 92° East  Level FlightAware Approximate
Sun 03:44:00 AM 56.0339 -31.0386 93° East  Level FlightAware Approximate
Sun 03:45:00 AM 56.0266 -30.7917 93° East  Level FlightAware Approximate
Sun 03:46:00 AM 56.0189 -30.5449 93° East  Level FlightAware Approximate
Sun 03:47:00 AM 56.0106 -30.2982 93° East  Level FlightAware Approximate
Sun 03:48:00 AM 56.0019 -30.0517 94° East  Level FlightAware Approximate
Sun 03:49:00 AM 55.9887 -29.8058 96° East  Level FlightAware Approximate
Sun 03:50:00 AM 55.9739 -29.5604 96° East  Level FlightAware Approximate
Sun 03:51:00 AM 55.9586 -29.3151 96° East  Level FlightAware Approximate
Sun 03:52:00 AM 55.9428 -29.0700 96° East  Level FlightAware Approximate
Sun 03:53:00 AM 55.9266 -28.8251 97° East  Level FlightAware Approximate
Sun 03:54:00 AM 55.9099 -28.5804 97° East  Level FlightAware Approximate
Sun 03:55:00 AM 55.8926 -28.3359 97° East  Level FlightAware Approximate
Sun 03:56:00 AM 55.8749 -28.0916 97° East  Level FlightAware Approximate
Sun 03:57:00 AM 55.8568 -27.8476 97° East  Level FlightAware Approximate
Sun 03:58:00 AM 55.8381 -27.6038 98° East  Level FlightAware Approximate
Sun 03:59:00 AM 55.8189 -27.3603 98° East  Level FlightAware Approximate
Sun 04:00:00 AM 55.7993 -27.1169 98° East  Level FlightAware Approximate
Sun 04:01:00 AM 55.7792 -26.8739 98° East  Level FlightAware Approximate
Sun 04:02:00 AM 55.7586 -26.6310 98° East  Level FlightAware Approximate
Sun 04:03:00 AM 55.7375 -26.3885 99° East  Level FlightAware Approximate
Sun 04:04:00 AM 55.7160 -26.1462 99° East  Level FlightAware Approximate
Sun 04:05:00 AM 55.6940 -25.9042 99° East  Level FlightAware Approximate
Sun 04:06:00 AM 55.6715 -25.6624 99° East  Level FlightAware Approximate
Sun 04:07:00 AM 55.6485 -25.4209 99° East  Level FlightAware Approximate
Sun 04:08:00 AM 55.6251 -25.1798 100° East  Level FlightAware Approximate
Sun 04:09:00 AM 55.6012 -24.9389 100° East  Level FlightAware Approximate
Sun 04:10:00 AM 55.5768 -24.6983 100° East  Level FlightAware Approximate
Sun 04:11:00 AM 55.5519 -24.4580 100° East  Level FlightAware Approximate
Sun 04:12:00 AM 55.5266 -24.2180 100° East  Level FlightAware Approximate
Sun 04:13:00 AM 55.5008 -23.9783 101° East  Level FlightAware Approximate
Sun 04:14:00 AM 55.4746 -23.7390 101° East  Level FlightAware Approximate
Sun 04:15:00 AM 55.4478 -23.5000 101° East  Level FlightAware Approximate
Sun 04:16:00 AM 55.4206 -23.2612 101° East  Level FlightAware Approximate
Sun 04:17:00 AM 55.3930 -23.0229 101° East  Level FlightAware Approximate
Sun 04:18:00 AM 55.3649 -22.7848 102° East  Level FlightAware Approximate
Sun 04:19:00 AM 55.3364 -22.5471 102° East  Level FlightAware Approximate
Sun 04:20:00 AM 55.3075 -22.3097 102° East  Level FlightAware Approximate
Sun 04:21:00 AM 55.2782 -22.0726 102° East  Level FlightAware Approximate
Sun 04:22:00 AM 55.2484 -21.8359 102° East  Level FlightAware Approximate
Sun 04:23:00 AM 55.2181 -21.5995 103° East  Level FlightAware Approximate
Sun 04:24:00 AM 55.1874 -21.3635 103° East  Level FlightAware Approximate
Sun 04:25:00 AM 55.1562 -21.1279 103° East  Level FlightAware Approximate
Sun 04:26:00 AM 55.1246 -20.8926 103° East  Level FlightAware Approximate
Sun 04:27:00 AM 55.0925 -20.6578 103° East  Level FlightAware Approximate
Sun 04:28:00 AM 55.0600 -20.4233 104° East  Level FlightAware Approximate
Sun 04:29:00 AM 55.0270 -20.1891 104° East  Level FlightAware Approximate
Sun 04:30:00 AM 54.9945 -19.9550 102° East  Level FlightAware Approximate
Sun 04:31:00 AM 54.9654 -19.7197 102° East  Level FlightAware Approximate
Sun 04:32:00 AM 54.9359 -19.4847 102° East  Level FlightAware Approximate
Sun 04:33:00 AM 54.9059 -19.2501 102° East  Level FlightAware Approximate
Sun 04:34:00 AM 54.8755 -19.0158 103° East  Level FlightAware Approximate
Sun 04:35:00 AM 54.8446 -18.7819 103° East  Level FlightAware Approximate
Sun 04:36:00 AM 54.8133 -18.5483 103° East  Level FlightAware Approximate
Sun 04:37:00 AM 54.7815 -18.3151 103° East  Level FlightAware Approximate
Sun 04:38:00 AM 54.7493 -18.0823 103° East  Level FlightAware Approximate
Sun 04:39:00 AM 54.7167 -17.8499 104° East  Level FlightAware Approximate
Sun 04:40:00 AM 54.6836 -17.6178 104° East  Level FlightAware Approximate
Sun 04:40:37 AM 53.8650 -14.2330 104° East 531 611 38,000  Level FlightAware ADS-B
Sun 04:41:00 AM 54.6500 -17.3861 104° East  Level FlightAware Approximate
Sun 04:41:12 AM 53.8420 -14.0890 105° East 533 613 38,000  Level FlightAware ADS-B
Sun 04:41:47 AM 53.8190 -13.9450 105° East 534 615 38,000  Level FlightAware ADS-B
Sun 04:42:17 AM 53.8010 -13.8280 105° East 534 615 38,000  Level FlightAware ADS-B
Sun 04:43:17 AM 53.7730 -13.5790 101° East 538 619 38,000  Level FlightAware ADS-B
Sun 04:44:12 AM 53.7570 -13.3440 96° East 537 618 38,000  Level FlightAware ADS-B
Sun 04:44:47 AM 53.7480 -13.1970 96° East 535 616 38,000  Level FlightAware ADS-B
Sun 04:45:32 AM 53.7350 -13.0050 96° East 536 617 38,000  Level FlightAware ADS-B
Sun 04:45:52 AM 53.7290 -12.9200 97° East 536 617 38,000  Level FlightAware ADS-B
Sun 04:46:52 AM 53.7130 -12.6900 97° East 536 617 38,000  Level FlightAware ADS-B
Sun 04:47:42 AM 53.6970 -12.4850 97° East 537 618 38,000  Level FlightAware ADS-B
Sun 04:48:22 AM 53.6850 -12.3170 97° East 535 616 38,000 -750 Level FlightAware ADS-B
Sun 04:49:02 AM 53.6710 -12.1440 98° East 538 619 37,000 -1,275 Descending FlightAware ADS-B
Sun 04:49:42 AM 53.6610 -11.9770 96° East 536 617 36,300 -1,200 Descending FlightAware ADS-B
Sun 04:50:07 AM 53.6540 -11.8690 96° East 536 617 35,700 -1,200 Descending FlightAware ADS-B
Sun 04:50:47 AM 53.6430 -11.7050 96° East 541 623 35,000 -494 Descending FlightAware ADS-B
Sun 04:51:32 AM 53.6250 -11.5190 99° East 538 619 35,000  Level FlightAware ADS-B
Sun 04:52:07 AM 53.6010 -11.3780 106° East 538 619 35,000  Level FlightAware ADS-B
Sun 04:52:47 AM 53.5680 -11.2300 111° Southeast 535 616 35,000  Level FlightAware ADS-B
Sun 04:53:47 AM 53.5160 -10.9920 110° East 534 615 35,000  Level FlightAware ADS-B
Sun 04:54:37 AM 53.4720 -10.7950 110° East 532 612 35,000  Level FlightAware ADS-B
Sun 04:55:32 AM 53.4240 -10.5830 111° Southeast 531 611 35,000  Level FlightAware ADS-B
Sun 04:57:02 AM 53.3470 -10.2440 111° Southeast 532 612 35,000  Level FlightAware ADS-B
Sun 04:57:37 AM 53.3150 -10.1070 111° Southeast 531 611 35,000  Level FlightAware ADS-B
Sun 04:58:12 AM 53.2830 -9.9710 111° Southeast 532 612 35,000  Level FlightAware ADS-B
Sun 04:58:42 AM 53.2570 -9.8590 111° Southeast 531 611 35,000  Level FlightAware ADS-B
Sun 04:59:22 AM 53.2200 -9.7010 111° Southeast 531 611 35,000  Level FlightAware ADS-B
Sun 05:00:02 AM 53.1850 -9.5530 111° Southeast 530 610 35,000  Level FlightAware ADS-B
Sun 05:00:42 AM 53.1480 -9.3970 112° Southeast 529 609 35,000  Level FlightAware ADS-B
Sun 05:01:17 AM 53.1140 -9.2570 112° Southeast 528 608 35,000  Level FlightAware ADS-B
Sun 05:01:57 AM 53.0820 -9.1260 112° Southeast 527 606 35,000 -1,233 Level FlightAware ADS-B
Sun 05:02:30 AM 53.0458 -8.9762 112° Southeast 478 550 33,500 -1,765 Descending FlightAware UK
Sun 05:02:48 AM 53.0295 -8.9088 112° Southeast 478 550 33,500  Level FlightAware UK
Sun 05:03:06 AM 53.0130 -8.8414 112° Southeast 478 550 33,500  Level FlightAware UK
Sun 05:03:24 AM 52.9963 -8.7740 112° Southeast 480 552 33,500  Level FlightAware UK
Sun 05:03:42 AM 52.9797 -8.7067 112° Southeast 480 552 33,500 3,913 Level FlightAware UK
Sun 05:03:47 AM 52.9810 -8.7110 112° Southeast 524 603 35,000  Climbing FlightAware ADS-B
Sun 05:04:06 AM 52.9577 -8.6169 112° Southeast 480 552 33,500 -2,432 Descending FlightAware UK
Sun 05:04:24 AM 52.9410 -8.5500 112° Southeast 480 552 33,500  Level FlightAware UK
Sun 05:04:42 AM 52.9243 -8.4832 113° Southeast 482 555 33,500 3,214 Level FlightAware UK
Sun 05:04:52 AM 52.9190 -8.4630 113° Southeast 522 601 35,000  Climbing FlightAware ADS-B
Sun 05:05:12 AM 52.8962 -8.3713 113° Southeast 478 550 33,500  Descending FlightAware UK
Sun 05:05:22 AM 52.8910 -8.3510 113° Southeast 521 600 35,000  Climbing FlightAware ADS-B
Sun 05:05:42 AM 52.8683 -8.2607 113° Southeast 478 550 33,500  Descending FlightAware UK
Sun 05:05:57 AM 52.8580 -8.2220 113° Southeast 522 601 35,000  Climbing FlightAware ADS-B
Sun 05:06:12 AM 52.8402 -8.1505 113° Southeast 480 552 33,500  Descending FlightAware UK
Sun 05:06:27 AM 52.8290 -8.1070 113° Southeast 520 598 35,000  Climbing FlightAware ADS-B
Sun 05:06:42 AM 52.8121 -8.0401 113° Southeast 480 552 33,500 -3,091 Descending FlightAware UK
Sun 05:07:00 AM 52.7952 -7.9738 113° Southeast 478 550 33,300 2,057 Descending FlightAware UK
Sun 05:07:17 AM 52.7850 -7.9350 113° Southeast 531 611 34,700 -1,000 Climbing FlightAware ADS-B
Sun 05:07:18 AM 52.7782 -7.9074 113° Southeast 482 555 33,000 -6,316 Descending FlightAware UK
Sun 05:07:36 AM 52.7611 -7.8406 113° Southeast 482 555 32,700 -1,000 Descending FlightAware UK
Sun 05:07:54 AM 52.7439 -7.7740 113° Southeast 476 548 32,400 -1,000 Descending FlightAware UK
Sun 05:08:12 AM 52.7267 -7.7076 113° Southeast 472 543 32,100 2,571 Descending FlightAware UK
Sun 05:08:22 AM 52.7230 -7.6940 113° Southeast 517 595 33,600 -1,000 Climbing FlightAware ADS-B
Sun 05:08:42 AM 52.6981 -7.5975 113° Southeast 466 536 31,600 -1,000 Descending FlightAware UK
Sun 05:08:52 AM 52.6950 -7.5870 113° Southeast 514 592 33,100 -200 Climbing FlightAware ADS-B
Sun 05:09:12 AM 52.6698 -7.4893 113° Southeast 470 541 31,500 -2,526 Descending FlightAware UK
Sun 05:09:30 AM 52.6527 -7.4239 113° Southeast 478 550 31,500 4,500 Level FlightAware UK
Sun 05:09:32 AM 52.6550 -7.4310 113° Southeast 528 608 33,000  Climbing FlightAware ADS-B
Sun 05:09:48 AM 52.6355 -7.3578 113° Southeast 482 555 31,500 -2,647 Descending FlightAware UK
Sun 05:10:06 AM 52.6180 -7.2909 113° Southeast 482 555 31,500 3,103 Level FlightAware UK
Sun 05:10:17 AM 52.6130 -7.2730 113° Southeast 533 613 33,000  Climbing FlightAware ADS-B
Sun 05:10:36 AM 52.5885 -7.1794 113° Southeast 484 557 31,500 -2,432 Descending FlightAware UK
Sun 05:10:54 AM 52.5707 -7.1119 114° Southeast 484 557 31,500 2,903 Level FlightAware UK
Sun 05:11:07 AM 52.5670 -7.0990 114° Southeast 533 613 33,000  Climbing FlightAware ADS-B
Sun 05:11:24 AM 52.5409 -7.0007 114° Southeast 484 557 31,500 -2,571 Descending FlightAware UK
Sun 05:11:42 AM 52.5232 -6.9340 114° Southeast 484 557 31,500 2,727 Level FlightAware UK
Sun 05:11:57 AM 52.5110 -6.8870 114° Southeast 534 615 33,000  Climbing FlightAware ADS-B
Sun 05:12:00 AM 52.5053 -6.8674 114° Southeast 484 557 31,500 -6,000 Descending FlightAware UK
Sun 05:12:12 AM 52.4933 -6.8231 114° Southeast 484 557 31,500  Level FlightAware UK
Sun 05:12:30 AM 52.4754 -6.7566 114° Southeast 484 557 31,500 2,571 Level FlightAware UK
Sun 05:12:47 AM 52.4620 -6.7080 114° Southeast 533 613 33,000  Climbing FlightAware ADS-B
Sun 05:12:48 AM 52.4574 -6.6902 114° Southeast 484 557 31,500 -4,737 Descending FlightAware UK
Sun 05:13:06 AM 52.4395 -6.6237 114° Southeast 484 557 31,500 2,647 Level FlightAware UK
Sun 05:13:22 AM 52.4280 -6.5820 114° Southeast 534 615 33,000  Climbing FlightAware ADS-B
Sun 05:13:42 AM 52.4034 -6.4911 114° Southeast 486 559 31,500  Descending FlightAware UK
Sun 05:13:57 AM 52.3940 -6.4570 114° Southeast 532 612 33,000  Climbing FlightAware ADS-B
Sun 05:14:12 AM 52.3732 -6.3811 114° Southeast 486 559 31,500 -2,727 Descending FlightAware UK
Sun 05:14:30 AM 52.3551 -6.3154 114° Southeast 484 557 31,500 4,500 Level FlightAware UK
Sun 05:14:32 AM 52.3560 -6.3180 114° Southeast 531 611 33,000  Climbing FlightAware ADS-B
Sun 05:14:48 AM 52.3370 -6.2498 114° Southeast 484 557 31,500 -2,647 Descending FlightAware UK
Sun 05:15:06 AM 52.3188 -6.1841 114° Southeast 484 557 31,500 3,103 Level FlightAware UK
Sun 05:15:17 AM 52.3120 -6.1600 114° Southeast 531 611 33,000  Climbing FlightAware ADS-B
Sun 05:15:36 AM 52.2886 -6.0749 114° Southeast 482 555 31,500 -2,432 Descending FlightAware UK
Sun 05:15:54 AM 52.2704 -6.0093 114° Southeast 484 557 31,500 4,286 Level FlightAware UK
Sun 05:15:57 AM 52.2710 -6.0120 114° Southeast 531 611 33,000  Climbing FlightAware ADS-B
Sun 05:16:12 AM 52.2519 -5.9432 114° Southeast 484 557 31,500 -2,727 Descending FlightAware UK
Sun 05:16:30 AM 52.2336 -5.8778 115° Southeast 486 559 31,500 4,500 Level FlightAware UK
Sun 05:16:32 AM 52.2350 -5.8820 115° Southeast 530 610 33,000  Climbing FlightAware ADS-B
Sun 05:16:48 AM 52.2152 -5.8125 115° Southeast 486 559 31,500 -2,647 Descending FlightAware UK
Sun 05:17:06 AM 52.1993 -5.7460 111° Southeast 484 557 31,500  Level FlightAware UK
Sun 05:17:24 AM 52.1844 -5.6791 110° East 484 557 31,500  Level FlightAware UK
Sun 05:17:42 AM 52.1700 -5.6117 109° East 484 557 31,500  Level FlightAware UK
Sun 05:18:00 AM 52.1556 -5.5446 109° East 488 562 31,500 3,600 Level FlightAware UK
Sun 05:18:07 AM 52.1520 -5.5300 109° East 525 604 33,000  Climbing FlightAware ADS-B
Sun 05:18:24 AM 52.1360 -5.4557 109° East 484 557 31,500 -2,571 Descending FlightAware UK
Sun 05:18:42 AM 52.1211 -5.3891 110° East 486 559 31,500  Level FlightAware UK
Sun 05:19:00 AM 52.1059 -5.3227 110° East 484 557 31,500 3,600 Level FlightAware UK
Sun 05:19:07 AM 52.1030 -5.3100 110° East 525 604 33,000  Climbing FlightAware ADS-B
Sun 05:19:24 AM 52.0854 -5.2344 110° East 484 557 31,500 -2,571 Descending FlightAware UK
Sun 05:19:42 AM 52.0700 -5.1683 111° Southeast 484 557 31,500  Level FlightAware UK
Sun 05:20:00 AM 52.0546 -5.1020 111° Southeast 484 557 31,500  Level FlightAware UK
Sun 05:20:24 AM 52.0336 -5.0137 111° Southeast 484 557 31,500 2,432 Level FlightAware UK
Sun 05:20:37 AM 52.0230 -4.9720 111° Southeast 526 605 33,000  Climbing FlightAware ADS-B
Sun 05:20:54 AM 52.0070 -4.9028 111° Southeast 484 557 31,500  Descending FlightAware UK
Sun 05:21:07 AM 51.9970 -4.8620 111° Southeast 526 605 33,000  Climbing FlightAware ADS-B
Sun 05:21:24 AM 51.9808 -4.7927 111° Southeast 484 557 31,500 -2,195 Descending FlightAware UK
Sun 05:21:48 AM 51.9598 -4.7047 111° Southeast 484 557 31,500 2,727 Level FlightAware UK
Sun 05:21:57 AM 51.9560 -4.6870 111° Southeast 525 604 33,000  Climbing FlightAware ADS-B
Sun 05:22:12 AM 51.9388 -4.6170 111° Southeast 486 559 31,500  Descending FlightAware UK
Sun 05:22:37 AM 51.9200 -4.5390 111° Southeast 524 603 33,000  Climbing FlightAware ADS-B
Sun 05:23:00 AM 51.8968 -4.4418 111° Southeast 484 557 31,500  Descending FlightAware UK
Sun 05:23:17 AM 51.8850 -4.3930 111° Southeast 525 604 33,000  Climbing FlightAware ADS-B
Sun 05:23:36 AM 51.8645 -4.3109 111° Southeast 482 555 31,500  Descending FlightAware UK
Sun 05:23:52 AM 51.8520 -4.2620 111° Southeast 526 605 33,000 3,214 Climbing FlightAware ADS-B
Sun 05:24:04 AM 51.8400 -4.2146 112° Southeast 527 606 33,000 -2,368 Level FlightAware ADS-B
Sun 05:24:30 AM 51.8150 -4.1149 112° Southeast 482 555 31,500  Descending FlightAware UK
Sun 05:24:37 AM 51.8130 -4.1090 112° Southeast 528 608 33,000  Climbing FlightAware ADS-B
Sun 05:25:00 AM 51.7876 -4.0053 112° Southeast 482 555 31,500  Descending FlightAware UK
Sun 05:25:07 AM 51.7840 -3.9920 112° Southeast 530 610 33,000  Climbing FlightAware ADS-B
Sun 05:25:30 AM 51.7601 -3.8953 112° Southeast 482 555 31,500  Descending FlightAware UK
Sun 05:25:47 AM 51.7470 -3.8440 112° Southeast 533 613 33,000  Climbing FlightAware ADS-B
Sun 05:26:18 AM 51.7154 -3.7183 112° Southeast 482 555 31,500  Descending FlightAware UK
Sun 05:26:22 AM 51.7160 -3.7200 112° Southeast 536 617 33,000  Climbing FlightAware ADS-B
Sun 05:26:49 AM 51.6879 -3.6063 112° Southeast 482 555 31,500  Descending FlightAware UK
Sun 05:26:57 AM 51.6830 -3.5790 112° Southeast 535 616 33,000 -250 Climbing FlightAware ADS-B
Sun 05:27:13 AM 51.6713 -3.5147 112° Southeast 482 555 31,400 -3,353 Descending FlightAware UK
Sun 05:27:31 AM 51.6597 -3.4465 105° East 480 552 31,100 3,000 Descending FlightAware UK
Sun 05:27:37 AM 51.6580 -3.4330 105° East 527 606 32,600 2,500 Climbing FlightAware ADS-B
Sun 05:27:55 AM 51.6460 -3.3572 104° East 528 608 32,100 -3,375 Descending FlightAware ADS-B
Sun 05:28:25 AM 51.6285 -3.2417 104° East 472 543 29,900 -1,263 Descending FlightAware UK
Sun 05:28:33 AM 51.6243 -3.2130 104° East 510 587 31,300 -1,500 Climbing FlightAware ADS-B
Sun 05:28:49 AM 51.6153 -3.1536 104° East 456 525 29,300 -1,600 Descending FlightAware UK
Sun 05:29:03 AM 51.6080 -3.1038 104° East 495 570 30,500 -1,875 Climbing FlightAware ADS-B
Sun 05:29:37 AM 51.5901 -2.9834 104° East 444 511 27,800 -1,733 Descending FlightAware UK
Sun 05:29:48 AM 51.5843 -2.9455 104° East 478 550 29,200  Climbing FlightAware ADS-B
Sun 05:30:20 AM 51.5684 -2.8381 103° East 479 551 27,800 -4,408 Descending FlightAware ADS-B
Sun 05:30:37 AM 51.5594 -2.7771 103° East 430 495 25,600 -2,250 Descending FlightAware UK
Sun 05:30:52 AM 51.5521 -2.7277 103° East 477 549 26,600 -2,600 Climbing FlightAware ADS-B
Sun 05:31:07 AM 51.5439 -2.6725 103° East 428 493 24,300 -2,800 Descending FlightAware UK
Sun 05:31:22 AM 51.5365 -2.6231 103° East 480 552 25,200 -261 Climbing FlightAware ADS-B
Sun 05:31:53 AM 51.5203 -2.5157 104° East 475 547 24,100 -2,095 Descending FlightAware ADS-B
Sun 05:32:25 AM 51.5040 -2.4084 104° East 464 534 23,000 -1,909 Descending FlightAware ADS-B
Sun 05:32:59 AM 51.4871 -2.2990 104° East 437 503 22,000 -2,156 Descending FlightAware ADS-B
Sun 05:33:29 AM 51.4731 -2.2074 104° East 423 487 20,700 -2,323 Descending FlightAware ADS-B
Sun 05:34:01 AM 51.4584 -2.1118 104° East 413 475 19,600 -2,190 Descending FlightAware ADS-B
Sun 05:34:32 AM 51.4444 -2.0219 104° East 404 465 18,400 -2,118 Descending FlightAware ADS-B
Sun 05:35:09 AM 51.4274 -1.9141 104° East 400 460 17,200 -3,556 Descending FlightAware ADS-B
Sun 05:35:26 AM 51.4198 -1.8652 104° East 356 410 15,200 -1,800 Descending FlightAware UK
Sun 05:35:39 AM 51.4139 -1.8288 104° East 395 455 16,300 -1,667 Climbing FlightAware ADS-B
Sun 05:36:02 AM 51.4035 -1.7631 104° East 350 403 14,200 -1,548 Descending FlightAware UK
Sun 05:36:10 AM 51.4004 -1.7432 104° East 392 451 15,500 -1,750 Climbing FlightAware ADS-B
Sun 05:36:26 AM 51.3929 -1.6960 104° East 348 400 13,500 -1,714 Descending FlightAware UK
Sun 05:36:45 AM 51.3844 -1.6432 104° East 388 447 14,500 -1,667 Climbing FlightAware ADS-B
Sun 05:37:02 AM 51.3768 -1.5960 104° East 344 396 12,500 -750 Descending FlightAware UK
Sun 05:37:25 AM 51.3669 -1.5341 104° East 386 444 14,000  Climbing FlightAware ADS-B
Sun 05:37:50 AM 51.3571 -1.4676 104° East 340 391 12,500  Descending FlightAware UK
Sun 05:37:56 AM 51.3551 -1.4532 104° East 372 428 14,000 2,647 Climbing FlightAware ADS-B
Sun 05:38:24 AM 51.3441 -1.3770 103° East 378 435 14,000 -2,125 Level FlightAware ADS-B
Sun 05:38:44 AM 51.3360 -1.3217 103° East 344 396 12,300 -581 Descending FlightAware UK
Sun 05:38:55 AM 51.3318 -1.2949 103° East 371 427 13,700 1,463 Climbing FlightAware ADS-B
Sun 05:39:25 AM 51.3200 -1.2164 103° East 357 411 13,300 -900 Descending FlightAware ADS-B
Sun 05:39:35 AM 51.3166 -1.1894 101° East 350 403 13,100 -1,111 Descending FlightAware ADS-B
Sun 05:39:52 AM 51.3135 -1.1480 97° East 341 392 12,800 -3,818 Descending FlightAware ADS-B
Sun 05:40:08 AM 51.3125 -1.1056 97° East 306 352 11,000 -938 Descending FlightAware UK
Sun 05:40:24 AM 51.3122 -1.0693 97° East 329 379 12,300 -833 Climbing FlightAware ADS-B
Sun 05:40:44 AM 51.3116 -1.0185 97° East 294 338 10,500 -581 Descending FlightAware UK
Sun 05:40:55 AM 51.3114 -0.9963 97° East 312 359 12,000 2,195 Climbing FlightAware ADS-B
Sun 05:41:25 AM 51.3109 -0.9306 91° East 289 333 12,000 -1,837 Level FlightAware ADS-B
Sun 05:41:44 AM 51.3107 -0.8876 91° East 262 302 10,500  Descending FlightAware UK
Sun 05:41:55 AM 51.3104 -0.8659 91° East 286 329 12,000 2,195 Climbing FlightAware ADS-B
Sun 05:42:25 AM 51.3098 -0.8027 91° East 285 328 12,000 -295 Level FlightAware ADS-B
Sun 05:42:56 AM 51.3090 -0.7385 91° East 288 331 11,700 -590 Descending FlightAware ADS-B
Sun 05:43:26 AM 51.3082 -0.6753 91° East 282 325 11,400 -600 Descending FlightAware ADS-B
Sun 05:43:56 AM 51.3074 -0.6127 91° East 280 322 11,100 -2,571 Descending FlightAware ADS-B
Sun 05:44:15 AM 51.3067 -0.5733 91° East 256 295 9,300 -774 Descending FlightAware UK
Sun 05:44:27 AM 51.3065 -0.5505 91° East 277 319 10,700 1,535 Climbing FlightAware ADS-B
Sun 05:44:58 AM 51.3055 -0.4862 91° East 275 316 10,400 -2,500 Descending FlightAware ADS-B
Sun 05:45:15 AM 51.3050 -0.4514 91° East 254 292 8,700 -500 Descending FlightAware UK
Sun 05:45:22 AM 51.3056 -0.4387 91° East 275 316 10,200 2,516 Climbing FlightAware ADS-B
Sun 05:45:46 AM 51.3084 -0.3889 85° East 273 314 10,000 -400 Descending FlightAware ADS-B
Sun 05:45:52 AM 51.3084 -0.3780 90° East 272 313 10,000  Level FlightAware ADS-B
Sun 05:45:55 AM 51.3080 -0.3713 95° East 273 314 10,000  Level FlightAware ADS-B
Sun 05:46:00 AM 51.3067 -0.3618 102° East 274 315 10,000  Level FlightAware ADS-B
Sun 05:46:04 AM 51.3046 -0.3531 111° Southeast 276 318 10,000  Level FlightAware ADS-B
Sun 05:46:08 AM 51.3029 -0.3476 116° Southeast 277 319 10,000 -857 Level FlightAware ADS-B
Sun 05:46:11 AM 51.3008 -0.3425 123° Southeast 278 320 9,900 -857 Descending FlightAware ADS-B
Sun 05:46:15 AM 51.2969 -0.3348 129° Southeast 279 321 9,900  Level FlightAware ADS-B
Sun 05:46:19 AM 51.2934 -0.3294 136° Southeast 279 321 9,900 -600 Level FlightAware ADS-B
Sun 05:46:25 AM 51.2872 -0.3222 144° Southeast 277 319 9,800 -600 Descending FlightAware ADS-B
Sun 05:46:29 AM 51.2829 -0.3187 153° Southeast 276 318 9,800 -353 Level FlightAware ADS-B
Sun 05:46:42 AM 51.2664 -0.3124 167° South 269 310 9,700 -353 Descending FlightAware ADS-B
Sun 05:46:46 AM 51.2614 -0.3125 181° South 266 306 9,700 -667 Level FlightAware ADS-B
Sun 05:46:51 AM 51.2556 -0.3138 188° South 260 299 9,600 -667 Descending FlightAware ADS-B
Sun 05:46:55 AM 51.2511 -0.3159 196° South 258 297 9,600 -545 Level FlightAware ADS-B
Sun 05:47:02 AM 51.2437 -0.3214 205° Southwest 254 292 9,500 -545 Descending FlightAware ADS-B
Sun 05:47:06 AM 51.2405 -0.3250 215° Southwest 247 284 9,500 -667 Level FlightAware ADS-B
Sun 05:47:11 AM 51.2360 -0.3317 223° Southwest 243 280 9,400 -667 Descending FlightAware ADS-B
Sun 05:47:15 AM 51.2334 -0.3373 234° Southwest 240 276 9,400 -667 Level FlightAware ADS-B
Sun 05:47:20 AM 51.2309 -0.3447 242° Southwest 237 273 9,300 -750 Descending FlightAware ADS-B
Sun 05:47:23 AM 51.2296 -0.3503 249° West 235 270 9,300  Level FlightAware ADS-B
Sun 05:47:26 AM 51.2288 -0.3553 256° West 234 269 9,300 -750 Level FlightAware ADS-B
Sun 05:47:31 AM 51.2281 -0.3627 261° West 232 267 9,200 -750 Descending FlightAware ADS-B
Sun 05:47:34 AM 51.2281 -0.3678 270° West 231 266 9,200 -857 Level FlightAware ADS-B
Sun 05:47:38 AM 51.2286 -0.3759 276° West 231 266 9,100 -667 Descending FlightAware ADS-B
Sun 05:47:43 AM 51.2299 -0.3838 285° West 231 266 9,100 -462 Level FlightAware ADS-B
Sun 05:47:51 AM 51.2336 -0.3954 297° West 233 268 9,000 -545 Descending FlightAware ADS-B
Sun 05:47:54 AM 51.2359 -0.4004 307° West 234 269 9,000  Level FlightAware ADS-B
Sun 05:47:58 AM 51.2388 -0.4054 313° West 235 270 9,000  Level FlightAware ADS-B
Sun 05:48:03 AM 51.2429 -0.4106 322° Northwest 236 272 9,000 -600 Level FlightAware ADS-B
Sun 05:48:08 AM 51.2477 -0.4150 330° Northwest 239 275 8,900 -750 Descending FlightAware ADS-B
Sun 05:48:11 AM 51.2508 -0.4169 339° North 240 276 8,900  Level FlightAware ADS-B
Sun 05:48:15 AM 51.2549 -0.4185 346° North 241 277 8,900  Level FlightAware ADS-B
Sun 05:48:18 AM 51.2585 -0.4192 353° North 242 278 8,900  Level FlightAware ADS-B
Sun 05:48:25 AM 51.2661 -0.4194 359° North 243 280 8,900 -800 Level FlightAware ADS-B
Sun 05:48:33 AM 51.2751 -0.4190 North 243 280 8,700 -1,000 Descending FlightAware ADS-B
Sun 05:48:37 AM 51.2793 -0.4181 North 244 281 8,700  Level FlightAware ADS-B
Sun 05:48:42 AM 51.2848 -0.4158 15° North 248 285 8,700 -750 Level FlightAware ADS-B
Sun 05:48:45 AM 51.2880 -0.4138 21° North 249 287 8,600 -857 Descending FlightAware ADS-B
Sun 05:48:49 AM 51.2920 -0.4107 26° Northeast 251 289 8,600  Level FlightAware ADS-B
Sun 05:48:52 AM 51.2958 -0.4069 32° Northeast 253 291 8,600  Level FlightAware ADS-B
Sun 05:48:57 AM 51.2994 -0.4021 39° Northeast 256 295 8,600 -545 Level FlightAware ADS-B
Sun 05:49:03 AM 51.3047 -0.3928 48° Northeast 259 298 8,500 -600 Descending FlightAware ADS-B
Sun 05:49:07 AM 51.3074 -0.3865 56° Northeast 261 300 8,500 -600 Level FlightAware ADS-B
Sun 05:49:23 AM 51.3165 -0.3600 61° Northeast 263 303 8,300 -750 Descending FlightAware ADS-B
Sun 05:49:39 AM 51.3259 -0.3313 62° Northeast 266 306 8,100 -643 Descending FlightAware ADS-B
Sun 05:49:51 AM 51.3323 -0.3110 63° Northeast 264 304 8,000 -545 Descending FlightAware ADS-B
Sun 05:50:01 AM 51.3380 -0.2936 62° Northeast 261 300 7,900 -643 Descending FlightAware ADS-B
Sun 05:50:19 AM 51.3486 -0.2634 61° Northeast 261 300 7,700 -667 Descending FlightAware ADS-B
Sun 05:50:37 AM 51.3589 -0.2334 61° Northeast 260 299 7,500 -545 Descending FlightAware ADS-B
Sun 05:50:52 AM 51.3672 -0.2078 63° Northeast 259 298 7,400 -600 Descending FlightAware ADS-B
Sun 05:51:07 AM 51.3755 -0.1816 63° Northeast 258 297 7,200 -581 Descending FlightAware ADS-B
Sun 05:51:23 AM 51.3839 -0.1558 62° Northeast 249 287 7,100 -581 Descending FlightAware ADS-B
Sun 05:51:38 AM 51.3920 -0.1318 62° Northeast 243 280 6,900 -800 Descending FlightAware ADS-B
Sun 05:51:53 AM 51.4001 -0.1073 62° Northeast 237 273 6,700 -783 Descending FlightAware ADS-B
Sun 05:52:01 AM 51.4040 -0.0959 61° Northeast 230 265 6,600 -429 Descending FlightAware ADS-B
Sun 05:52:07 AM 51.4071 -0.0881 57° Northeast 221 254 6,600 -600 Level FlightAware ADS-B
Sun 05:52:11 AM 51.4102 -0.0822 50° Northeast 214 246 6,500 -1,333 Descending FlightAware ADS-B
Sun 05:52:16 AM 51.4131 -0.0777 44° Northeast 210 242 6,400 -1,200 Descending FlightAware ADS-B
Sun 05:52:21 AM 51.4177 -0.0727 34° Northeast 205 236 6,300 -1,333 Descending FlightAware ADS-B
Sun 05:52:25 AM 51.4211 -0.0701 25° Northeast 203 234 6,200 -1,800 Descending FlightAware ADS-B
Sun 05:52:31 AM 51.4260 -0.0676 18° North 199 229 6,000 -1,800 Descending FlightAware ADS-B
Sun 05:52:35 AM 51.4299 -0.0664 10° North 197 227 5,900 -1,714 Descending FlightAware ADS-B
Sun 05:52:38 AM 51.4324 -0.0660 North 195 224 5,800 -1,333 Descending FlightAware ADS-B
Sun 05:52:44 AM 51.4372 -0.0660 360° North 191 220 5,700 -1,500 Descending FlightAware ADS-B
Sun 05:52:50 AM 51.4428 -0.0672 352° North 188 216 5,500 -1,500 Descending FlightAware ADS-B
Sun 05:52:56 AM 51.4476 -0.0696 343° North 187 215 5,400 -1,500 Descending FlightAware ADS-B
Sun 05:53:02 AM 51.4525 -0.0735 333° Northwest 185 213 5,200 -1,636 Descending FlightAware ADS-B
Sun 05:53:07 AM 51.4559 -0.0771 326° Northwest 183 211 5,100 -1,200 Descending FlightAware ADS-B
Sun 05:53:12 AM 51.4593 -0.0818 320° Northwest 181 208 5,000 -1,333 Descending FlightAware ADS-B
Sun 05:53:16 AM 51.4612 -0.0849 314° West 181 208 4,900 -1,500 Descending FlightAware ADS-B
Sun 05:53:20 AM 51.4637 -0.0899 309° West 180 207 4,800 -1,500 Descending FlightAware ADS-B
Sun 05:53:24 AM 51.4655 -0.0941 305° West 179 206 4,700 -1,333 Descending FlightAware ADS-B
Sun 05:53:38 AM 51.4715 -0.1099 301° West 178 205 4,400 -1,429 Descending FlightAware ADS-B
Sun 05:53:45 AM 51.4741 -0.1177 298° West 175 201 4,200 -1,200 Descending FlightAware ADS-B
Sun 05:53:48 AM 51.4749 -0.1216 288° West 173 199 4,200 -1,200 Level FlightAware ADS-B
Sun 05:53:55 AM 51.4758 -0.1299 280° West 174 200 4,000 -1,556 Descending FlightAware ADS-B
Sun 05:54:15 AM 51.4764 -0.1556 272° West 174 200 3,500 -1,200 Descending FlightAware ADS-B
Sun 05:54:25 AM 51.4767 -0.1691 272° West 171 197 3,400 -857 Descending FlightAware ADS-B
Sun 05:54:43 AM 51.4782 -0.1914 276° West 176 203 3,100 -3,568 Descending FlightAware ADS-B
Sun 05:55:02 AM 51.4785 -0.2180 276° West 186 214 1,200 -882 Descending FlightAware UK
Sun 05:55:17 AM 51.4780 -0.2310 276° West 177 204 2,600 -1,000 Climbing FlightAware ADS-B
Sun 05:55:38 AM 51.4777 -0.2648 276° West 188 216 600 -600 Descending FlightAware UK
Sun 05:55:57 AM 51.4780 -0.2640 276° West 171 197 2,200 1,636 Climbing FlightAware ADS-B
Sun 05:56:22 AM 51.4780 -0.2900 270° West 161 185 1,800 -1,200 Descending FlightAware ADS-B
Sun 05:56:52 AM 51.4780 -0.3450 270° West 138 159 1,100 -1,100 Descending FlightAware ADS-B
Sun 05:57:22 AM 51.4780 -0.3750 270° West 132 152 700 -533 Descending FlightAware ADS-B
Sun 05:57:37 AM 51.4780 -0.3870 270° West 134 154 700  Level FlightAware ADS-B

Login

Don't have an account? Register now (free) for customized features, flight alerts, and more!